sensor_id;sensor_type;location;lat;lon;timestamp;temperature;humidity
68217;DHT22;55037;52.354;4.992;2023-07-31T00:02:16;18.50;90.60
68217;DHT22;55037;52.354;4.992;2023-07-31T00:04:44;18.50;90.60
68217;DHT22;55037;52.354;4.992;2023-07-31T00:07:11;18.60;90.60
68217;DHT22;55037;52.354;4.992;2023-07-31T00:09:38;18.60;90.70
68217;DHT22;55037;52.354;4.992;2023-07-31T00:12:06;18.50;90.50
68217;DHT22;55037;52.354;4.992;2023-07-31T00:14:33;18.60;90.60
68217;DHT22;55037;52.354;4.992;2023-07-31T00:17:01;18.70;90.40
68217;DHT22;55037;52.354;4.992;2023-07-31T00:19:28;18.60;90.50
68217;DHT22;55037;52.354;4.992;2023-07-31T00:21:55;18.60;90.40
68217;DHT22;55037;52.354;4.992;2023-07-31T00:24:23;18.60;90.50
68217;DHT22;55037;52.354;4.992;2023-07-31T00:26:50;18.70;90.40
68217;DHT22;55037;52.354;4.992;2023-07-31T00:29:17;18.60;90.30
68217;DHT22;55037;52.354;4.992;2023-07-31T00:31:45;18.60;90.50
68217;DHT22;55037;52.354;4.992;2023-07-31T00:34:12;18.60;90.50
68217;DHT22;55037;52.354;4.992;2023-07-31T00:36:39;18.60;90.50
68217;DHT22;55037;52.354;4.992;2023-07-31T00:39:08;18.60;90.90
68217;DHT22;55037;52.354;4.992;2023-07-31T00:41:35;18.60;90.70
68217;DHT22;55037;52.354;4.992;2023-07-31T00:44:02;18.70;90.60
68217;DHT22;55037;52.354;4.992;2023-07-31T00:46:30;18.60;90.60
68217;DHT22;55037;52.354;4.992;2023-07-31T00:48:57;18.60;90.60
68217;DHT22;55037;52.354;4.992;2023-07-31T00:51:25;18.60;90.70
68217;DHT22;55037;52.354;4.992;2023-07-31T00:53:53;18.70;90.80
68217;DHT22;55037;52.354;4.992;2023-07-31T00:56:22;18.70;90.70
68217;DHT22;55037;52.354;4.992;2023-07-31T00:58:49;18.80;90.60
68217;DHT22;55037;52.354;4.992;2023-07-31T01:01:16;18.80;90.70
68217;DHT22;55037;52.354;4.992;2023-07-31T01:03:44;18.80;90.70
68217;DHT22;55037;52.354;4.992;2023-07-31T01:06:18;18.70;90.70
68217;DHT22;55037;52.354;4.992;2023-07-31T01:11:44;18.70;90.70
68217;DHT22;55037;52.354;4.992;2023-07-31T01:14:13;18.70;90.70
68217;DHT22;55037;52.354;4.992;2023-07-31T01:16:40;18.70;90.60
68217;DHT22;55037;52.354;4.992;2023-07-31T01:19:09;18.70;90.60
68217;DHT22;55037;52.354;4.992;2023-07-31T01:21:57;18.70;90.70
68217;DHT22;55037;52.354;4.992;2023-07-31T01:27:24;18.70;91.00
68217;DHT22;55037;52.354;4.992;2023-07-31T01:30:20;18.60;90.40
68217;DHT22;55037;52.354;4.992;2023-07-31T01:32:47;18.60;90.80
68217;DHT22;55037;52.354;4.992;2023-07-31T01:35:15;18.60;90.80
68217;DHT22;55037;52.354;4.992;2023-07-31T01:37:42;18.60;90.70
68217;DHT22;55037;52.354;4.992;2023-07-31T01:40:10;18.60;90.60
68217;DHT22;55037;52.354;4.992;2023-07-31T01:42:37;18.60;90.80
68217;DHT22;55037;52.354;4.992;2023-07-31T01:45:05;18.60;90.80
68217;DHT22;55037;52.354;4.992;2023-07-31T01:47:33;18.60;90.80
68217;DHT22;55037;52.354;4.992;2023-07-31T01:50:00;18.60;90.40
68217;DHT22;55037;52.354;4.992;2023-07-31T01:52:27;18.60;90.80
68217;DHT22;55037;52.354;4.992;2023-07-31T01:54:55;18.60;90.90
68217;DHT22;55037;52.354;4.992;2023-07-31T01:57:23;18.60;90.90
68217;DHT22;55037;52.354;4.992;2023-07-31T01:59:51;18.60;90.50
68217;DHT22;55037;52.354;4.992;2023-07-31T02:02:20;18.60;90.80
68217;DHT22;55037;52.354;4.992;2023-07-31T02:04:48;18.60;90.80
68217;DHT22;55037;52.354;4.992;2023-07-31T02:07:15;18.60;90.90
68217;DHT22;55037;52.354;4.992;2023-07-31T02:09:42;18.60;90.90
68217;DHT22;55037;52.354;4.992;2023-07-31T02:12:10;18.60;90.90
68217;DHT22;55037;52.354;4.992;2023-07-31T02:14:37;18.70;91.00
68217;DHT22;55037;52.354;4.992;2023-07-31T02:17:05;18.70;91.00
68217;DHT22;55037;52.354;4.992;2023-07-31T02:19:32;18.70;90.90
68217;DHT22;55037;52.354;4.992;2023-07-31T02:21:59;18.70;91.00
68217;DHT22;55037;52.354;4.992;2023-07-31T02:24:27;18.80;90.90
68217;DHT22;55037;52.354;4.992;2023-07-31T02:26:55;18.80;90.80
68217;DHT22;55037;52.354;4.992;2023-07-31T02:29:22;18.70;90.80
68217;DHT22;55037;52.354;4.992;2023-07-31T02:31:49;18.80;90.70
68217;DHT22;55037;52.354;4.992;2023-07-31T02:34:17;18.80;90.80
68217;DHT22;55037;52.354;4.992;2023-07-31T02:36:46;18.70;90.80
68217;DHT22;55037;52.354;4.992;2023-07-31T02:39:13;18.80;90.80
68217;DHT22;55037;52.354;4.992;2023-07-31T02:41:41;18.70;90.80
68217;DHT22;55037;52.354;4.992;2023-07-31T02:44:08;18.70;90.90
68217;DHT22;55037;52.354;4.992;2023-07-31T02:46:37;18.70;90.90
68217;DHT22;55037;52.354;4.992;2023-07-31T02:49:05;18.80;90.80
68217;DHT22;55037;52.354;4.992;2023-07-31T02:51:32;18.80;90.60
68217;DHT22;55037;52.354;4.992;2023-07-31T02:53:59;18.80;90.60
68217;DHT22;55037;52.354;4.992;2023-07-31T02:56:26;18.90;90.60
68217;DHT22;55037;52.354;4.992;2023-07-31T02:58:54;18.80;90.40
68217;DHT22;55037;52.354;4.992;2023-07-31T03:01:21;18.70;90.50
68217;DHT22;55037;52.354;4.992;2023-07-31T03:03:49;18.70;90.40
68217;DHT22;55037;52.354;4.992;2023-07-31T03:06:16;18.70;90.60
68217;DHT22;55037;52.354;4.992;2023-07-31T03:08:43;18.60;90.70
68217;DHT22;55037;52.354;4.992;2023-07-31T03:11:11;18.60;90.70
68217;DHT22;55037;52.354;4.992;2023-07-31T03:13:38;18.60;90.80
68217;DHT22;55037;52.354;4.992;2023-07-31T03:16:05;18.60;90.80
68217;DHT22;55037;52.354;4.992;2023-07-31T03:18:33;18.50;90.80
68217;DHT22;55037;52.354;4.992;2023-07-31T03:21:00;18.50;90.90
68217;DHT22;55037;52.354;4.992;2023-07-31T03:23:27;18.50;90.90
68217;DHT22;55037;52.354;4.992;2023-07-31T03:25:56;18.60;90.80
68217;DHT22;55037;52.354;4.992;2023-07-31T03:28:27;18.60;90.80
68217;DHT22;55037;52.354;4.992;2023-07-31T03:30:55;18.60;90.90
68217;DHT22;55037;52.354;4.992;2023-07-31T03:33:23;18.60;90.90
68217;DHT22;55037;52.354;4.992;2023-07-31T03:35:50;18.60;90.90
68217;DHT22;55037;52.354;4.992;2023-07-31T03:38:18;18.70;90.90
68217;DHT22;55037;52.354;4.992;2023-07-31T03:40:46;18.70;90.90
68217;DHT22;55037;52.354;4.992;2023-07-31T03:43:13;18.70;91.30
68217;DHT22;55037;52.354;4.992;2023-07-31T03:45:42;18.70;90.80
68217;DHT22;55037;52.354;4.992;2023-07-31T03:48:11;18.70;90.60
68217;DHT22;55037;52.354;4.992;2023-07-31T03:50:38;18.60;90.60
68217;DHT22;55037;52.354;4.992;2023-07-31T03:53:06;18.60;90.80
68217;DHT22;55037;52.354;4.992;2023-07-31T03:55:33;18.50;90.80
68217;DHT22;55037;52.354;4.992;2023-07-31T03:58:00;18.50;90.90
68217;DHT22;55037;52.354;4.992;2023-07-31T04:00:27;18.50;90.80
68217;DHT22;55037;52.354;4.992;2023-07-31T04:02:55;18.50;90.80
68217;DHT22;55037;52.354;4.992;2023-07-31T04:05:22;18.50;90.90
68217;DHT22;55037;52.354;4.992;2023-07-31T04:07:50;18.50;90.80
68217;DHT22;55037;52.354;4.992;2023-07-31T04:10:17;18.50;90.90
68217;DHT22;55037;52.354;4.992;2023-07-31T04:12:44;18.50;90.90
68217;DHT22;55037;52.354;4.992;2023-07-31T04:15:12;18.50;90.90
68217;DHT22;55037;52.354;4.992;2023-07-31T04:17:39;18.40;90.90
68217;DHT22;55037;52.354;4.992;2023-07-31T04:20:07;18.50;90.50
68217;DHT22;55037;52.354;4.992;2023-07-31T04:22:34;18.40;90.80
68217;DHT22;55037;52.354;4.992;2023-07-31T04:25:01;18.40;91.00
68217;DHT22;55037;52.354;4.992;2023-07-31T04:27:28;18.40;91.10
68217;DHT22;55037;52.354;4.992;2023-07-31T04:29:56;18.40;91.10
68217;DHT22;55037;52.354;4.992;2023-07-31T04:32:23;18.50;91.10
68217;DHT22;55037;52.354;4.992;2023-07-31T04:34:50;18.50;91.10
68217;DHT22;55037;52.354;4.992;2023-07-31T04:37:18;18.50;91.00
68217;DHT22;55037;52.354;4.992;2023-07-31T04:39:45;18.50;91.00
68217;DHT22;55037;52.354;4.992;2023-07-31T04:42:12;18.60;91.00
68217;DHT22;55037;52.354;4.992;2023-07-31T04:44:40;18.60;90.90
68217;DHT22;55037;52.354;4.992;2023-07-31T04:47:07;18.50;90.90
68217;DHT22;55037;52.354;4.992;2023-07-31T04:49:34;18.60;91.00
68217;DHT22;55037;52.354;4.992;2023-07-31T04:52:02;18.50;90.90
68217;DHT22;55037;52.354;4.992;2023-07-31T04:54:29;18.50;91.00
68217;DHT22;55037;52.354;4.992;2023-07-31T04:56:56;18.50;91.00
68217;DHT22;55037;52.354;4.992;2023-07-31T04:59:24;18.50;91.10
68217;DHT22;55037;52.354;4.992;2023-07-31T05:01:51;18.50;91.20
68217;DHT22;55037;52.354;4.992;2023-07-31T05:04:18;18.50;91.20
68217;DHT22;55037;52.354;4.992;2023-07-31T05:06:46;18.50;91.30
68217;DHT22;55037;52.354;4.992;2023-07-31T05:09:13;18.50;91.30
68217;DHT22;55037;52.354;4.992;2023-07-31T05:11:40;18.40;91.20
68217;DHT22;55037;52.354;4.992;2023-07-31T05:14:10;18.40;91.20
68217;DHT22;55037;52.354;4.992;2023-07-31T05:16:37;18.40;91.30
68217;DHT22;55037;52.354;4.992;2023-07-31T05:19:05;18.40;91.40
68217;DHT22;55037;52.354;4.992;2023-07-31T05:21:32;18.40;91.40
68217;DHT22;55037;52.354;4.992;2023-07-31T05:23:59;18.40;91.40
68217;DHT22;55037;52.354;4.992;2023-07-31T05:26:27;18.50;91.40
68217;DHT22;55037;52.354;4.992;2023-07-31T05:28:54;18.50;91.30
68217;DHT22;55037;52.354;4.992;2023-07-31T05:31:21;18.50;91.30
68217;DHT22;55037;52.354;4.992;2023-07-31T05:33:49;18.40;91.40
68217;DHT22;55037;52.354;4.992;2023-07-31T05:36:17;18.40;91.50
68217;DHT22;55037;52.354;4.992;2023-07-31T05:38:44;18.40;91.40
68217;DHT22;55037;52.354;4.992;2023-07-31T05:41:12;18.40;91.60
68217;DHT22;55037;52.354;4.992;2023-07-31T05:43:40;18.30;91.30
68217;DHT22;55037;52.354;4.992;2023-07-31T05:46:07;18.20;91.30
68217;DHT22;55037;52.354;4.992;2023-07-31T05:48:36;18.20;91.50
68217;DHT22;55037;52.354;4.992;2023-07-31T05:51:03;18.20;91.50
68217;DHT22;55037;52.354;4.992;2023-07-31T05:53:31;18.20;91.60
68217;DHT22;55037;52.354;4.992;2023-07-31T05:55:58;18.20;91.40
68217;DHT22;55037;52.354;4.992;2023-07-31T05:58:25;18.20;91.40
68217;DHT22;55037;52.354;4.992;2023-07-31T06:00:53;18.10;91.40
68217;DHT22;55037;52.354;4.992;2023-07-31T06:03:20;18.10;91.60
68217;DHT22;55037;52.354;4.992;2023-07-31T06:05:50;18.10;91.60
68217;DHT22;55037;52.354;4.992;2023-07-31T06:08:17;18.10;91.70
68217;DHT22;55037;52.354;4.992;2023-07-31T06:10:45;18.10;91.50
68217;DHT22;55037;52.354;4.992;2023-07-31T06:13:12;18.20;91.60
68217;DHT22;55037;52.354;4.992;2023-07-31T06:15:39;18.20;91.40
68217;DHT22;55037;52.354;4.992;2023-07-31T06:18:07;18.20;91.50
68217;DHT22;55037;52.354;4.992;2023-07-31T06:20:35;18.20;91.70
68217;DHT22;55037;52.354;4.992;2023-07-31T06:23:02;18.20;91.70
68217;DHT22;55037;52.354;4.992;2023-07-31T06:25:30;18.20;91.60
68217;DHT22;55037;52.354;4.992;2023-07-31T06:27:58;18.30;91.60
68217;DHT22;55037;52.354;4.992;2023-07-31T06:30:25;18.30;91.70
68217;DHT22;55037;52.354;4.992;2023-07-31T06:32:52;18.30;91.70
68217;DHT22;55037;52.354;4.992;2023-07-31T06:35:20;18.30;91.50
68217;DHT22;55037;52.354;4.992;2023-07-31T06:37:47;18.30;91.60
68217;DHT22;55037;52.354;4.992;2023-07-31T06:40:14;18.40;91.70
68217;DHT22;55037;52.354;4.992;2023-07-31T06:42:41;18.40;91.60
68217;DHT22;55037;52.354;4.992;2023-07-31T06:45:09;18.40;91.60
68217;DHT22;55037;52.354;4.992;2023-07-31T06:47:37;18.40;91.60
68217;DHT22;55037;52.354;4.992;2023-07-31T06:50:05;18.40;91.40
68217;DHT22;55037;52.354;4.992;2023-07-31T06:52:32;18.40;91.80
68217;DHT22;55037;52.354;4.992;2023-07-31T06:55:16;18.40;91.80
68217;DHT22;55037;52.354;4.992;2023-07-31T06:57:47;18.50;91.80
68217;DHT22;55037;52.354;4.992;2023-07-31T07:00:16;18.50;91.80
68217;DHT22;55037;52.354;4.992;2023-07-31T07:02:44;18.50;91.80
68217;DHT22;55037;52.354;4.992;2023-07-31T07:05:11;18.50;91.80
68217;DHT22;55037;52.354;4.992;2023-07-31T07:07:39;18.60;91.90
68217;DHT22;55037;52.354;4.992;2023-07-31T07:10:07;18.70;91.80
68217;DHT22;55037;52.354;4.992;2023-07-31T07:12:34;18.70;91.80
68217;DHT22;55037;52.354;4.992;2023-07-31T07:15:02;18.80;91.70
68217;DHT22;55037;52.354;4.992;2023-07-31T07:17:30;18.80;91.80
68217;DHT22;55037;52.354;4.992;2023-07-31T07:20:00;18.80;91.40
68217;DHT22;55037;52.354;4.992;2023-07-31T07:22:28;18.80;91.80
68217;DHT22;55037;52.354;4.992;2023-07-31T07:24:58;18.90;91.90
68217;DHT22;55037;52.354;4.992;2023-07-31T07:27:25;18.90;91.70
68217;DHT22;55037;52.354;4.992;2023-07-31T07:29:52;18.90;91.70
68217;DHT22;55037;52.354;4.992;2023-07-31T07:32:20;18.90;91.80
68217;DHT22;55037;52.354;4.992;2023-07-31T07:34:48;18.90;91.70
68217;DHT22;55037;52.354;4.992;2023-07-31T07:37:16;19.00;91.70
68217;DHT22;55037;52.354;4.992;2023-07-31T07:39:44;19.00;91.90
68217;DHT22;55037;52.354;4.992;2023-07-31T07:42:11;19.00;91.70
68217;DHT22;55037;52.354;4.992;2023-07-31T07:44:39;19.00;92.00
68217;DHT22;55037;52.354;4.992;2023-07-31T07:47:06;19.10;91.90
68217;DHT22;55037;52.354;4.992;2023-07-31T07:49:34;19.10;91.80
68217;DHT22;55037;52.354;4.992;2023-07-31T07:52:02;19.20;91.80
68217;DHT22;55037;52.354;4.992;2023-07-31T07:54:30;19.20;91.80
68217;DHT22;55037;52.354;4.992;2023-07-31T07:56:57;19.20;91.90
68217;DHT22;55037;52.354;4.992;2023-07-31T07:59:25;19.30;92.20
68217;DHT22;55037;52.354;4.992;2023-07-31T08:01:52;19.40;91.80
68217;DHT22;55037;52.354;4.992;2023-07-31T08:04:20;19.40;91.70
68217;DHT22;55037;52.354;4.992;2023-07-31T08:06:47;19.50;91.80
68217;DHT22;55037;52.354;4.992;2023-07-31T08:09:14;19.50;91.70
68217;DHT22;55037;52.354;4.992;2023-07-31T08:11:42;19.50;91.80
68217;DHT22;55037;52.354;4.992;2023-07-31T08:14:09;19.50;92.00
68217;DHT22;55037;52.354;4.992;2023-07-31T08:16:36;19.60;91.90
68217;DHT22;55037;52.354;4.992;2023-07-31T08:19:04;19.70;91.60
68217;DHT22;55037;52.354;4.992;2023-07-31T08:21:32;19.70;91.70
68217;DHT22;55037;52.354;4.992;2023-07-31T08:23:59;19.70;91.60
68217;DHT22;55037;52.354;4.992;2023-07-31T08:26:26;19.70;91.70
68217;DHT22;55037;52.354;4.992;2023-07-31T08:28:54;19.70;91.90
68217;DHT22;55037;52.354;4.992;2023-07-31T08:31:21;19.70;92.00
68217;DHT22;55037;52.354;4.992;2023-07-31T08:33:48;19.80;91.90
68217;DHT22;55037;52.354;4.992;2023-07-31T08:36:16;19.90;92.10
68217;DHT22;55037;52.354;4.992;2023-07-31T08:38:44;20.00;91.90
68217;DHT22;55037;52.354;4.992;2023-07-31T08:41:12;20.10;91.60
68217;DHT22;55037;52.354;4.992;2023-07-31T08:43:41;20.10;92.10
68217;DHT22;55037;52.354;4.992;2023-07-31T08:46:09;20.10;91.70
68217;DHT22;55037;52.354;4.992;2023-07-31T08:48:37;20.20;91.70
68217;DHT22;55037;52.354;4.992;2023-07-31T08:51:06;20.20;91.40
68217;DHT22;55037;52.354;4.992;2023-07-31T08:53:34;20.20;91.40
68217;DHT22;55037;52.354;4.992;2023-07-31T08:56:02;20.20;91.40
68217;DHT22;55037;52.354;4.992;2023-07-31T08:58:31;20.20;91.70
68217;DHT22;55037;52.354;4.992;2023-07-31T09:01:01;20.20;91.60
68217;DHT22;55037;52.354;4.992;2023-07-31T09:03:33;20.20;91.40
68217;DHT22;55037;52.354;4.992;2023-07-31T09:06:03;20.30;91.50
68217;DHT22;55037;52.354;4.992;2023-07-31T09:08:33;20.20;91.20
68217;DHT22;55037;52.354;4.992;2023-07-31T09:11:01;20.20;91.40
68217;DHT22;55037;52.354;4.992;2023-07-31T09:13:32;20.20;91.30
68217;DHT22;55037;52.354;4.992;2023-07-31T09:15:59;20.20;91.60
68217;DHT22;55037;52.354;4.992;2023-07-31T09:18:27;20.30;91.20
68217;DHT22;55037;52.354;4.992;2023-07-31T09:21:02;20.30;91.30
68217;DHT22;55037;52.354;4.992;2023-07-31T09:23:43;20.20;91.20
68217;DHT22;55037;52.354;4.992;2023-07-31T09:26:11;20.20;91.20
68217;DHT22;55037;52.354;4.992;2023-07-31T09:28:38;20.10;91.10
68217;DHT22;55037;52.354;4.992;2023-07-31T09:31:06;20.10;91.60
68217;DHT22;55037;52.354;4.992;2023-07-31T09:33:33;20.10;91.70
68217;DHT22;55037;52.354;4.992;2023-07-31T09:36:04;20.20;91.60
68217;DHT22;55037;52.354;4.992;2023-07-31T09:38:32;20.20;91.70
68217;DHT22;55037;52.354;4.992;2023-07-31T09:40:59;20.20;91.50
68217;DHT22;55037;52.354;4.992;2023-07-31T09:43:27;20.30;91.70
68217;DHT22;55037;52.354;4.992;2023-07-31T09:45:58;20.30;91.40
68217;DHT22;55037;52.354;4.992;2023-07-31T09:48:25;20.30;91.60
68217;DHT22;55037;52.354;4.992;2023-07-31T09:50:54;20.40;91.40
68217;DHT22;55037;52.354;4.992;2023-07-31T09:53:28;20.50;91.50
68217;DHT22;55037;52.354;4.992;2023-07-31T09:55:58;20.50;91.20
68217;DHT22;55037;52.354;4.992;2023-07-31T09:58:28;20.50;91.20
68217;DHT22;55037;52.354;4.992;2023-07-31T10:00:58;20.50;91.40
68217;DHT22;55037;52.354;4.992;2023-07-31T10:03:27;20.60;91.20
68217;DHT22;55037;52.354;4.992;2023-07-31T10:05:57;20.60;91.30
68217;DHT22;55037;52.354;4.992;2023-07-31T10:08:30;20.70;91.30
68217;DHT22;55037;52.354;4.992;2023-07-31T10:11:00;20.70;91.00
68217;DHT22;55037;52.354;4.992;2023-07-31T10:13:30;20.80;91.40
68217;DHT22;55037;52.354;4.992;2023-07-31T10:15:59;21.20;93.30
68217;DHT22;55037;52.354;4.992;2023-07-31T10:18:28;21.90;91.00
68217;DHT22;55037;52.354;4.992;2023-07-31T10:20:56;22.20;88.70
68217;DHT22;55037;52.354;4.992;2023-07-31T10:23:24;22.20;88.10
68217;DHT22;55037;52.354;4.992;2023-07-31T10:25:53;22.40;88.50
68217;DHT22;55037;52.354;4.992;2023-07-31T10:28:21;22.70;87.30
68217;DHT22;55037;52.354;4.992;2023-07-31T10:30:50;23.00;86.90
68217;DHT22;55037;52.354;4.992;2023-07-31T10:33:18;23.30;85.30
68217;DHT22;55037;52.354;4.992;2023-07-31T10:35:47;23.20;85.00
68217;DHT22;55037;52.354;4.992;2023-07-31T10:38:15;23.10;83.80
68217;DHT22;55037;52.354;4.992;2023-07-31T10:40:43;22.90;83.80
68217;DHT22;55037;52.354;4.992;2023-07-31T10:43:24;22.60;85.20
68217;DHT22;55037;52.354;4.992;2023-07-31T10:45:54;22.60;86.10
68217;DHT22;55037;52.354;4.992;2023-07-31T10:48:22;22.70;85.90
68217;DHT22;55037;52.354;4.992;2023-07-31T10:50:54;22.90;85.40
68217;DHT22;55037;52.354;4.992;2023-07-31T10:53:25;23.10;84.60
68217;DHT22;55037;52.354;4.992;2023-07-31T10:55:52;23.30;84.90
68217;DHT22;55037;52.354;4.992;2023-07-31T10:58:21;23.40;83.90
68217;DHT22;55037;52.354;4.992;2023-07-31T11:00:49;23.40;84.00
68217;DHT22;55037;52.354;4.992;2023-07-31T11:03:17;23.40;83.60
68217;DHT22;55037;52.354;4.992;2023-07-31T11:10:51;22.60;83.00
68217;DHT22;55037;52.354;4.992;2023-07-31T11:16:01;22.20;87.80
68217;DHT22;55037;52.354;4.992;2023-07-31T11:18:28;22.40;87.30
68217;DHT22;55037;52.354;4.992;2023-07-31T11:20:55;22.50;84.80
68217;DHT22;55037;52.354;4.992;2023-07-31T11:23:23;22.60;85.40
68217;DHT22;55037;52.354;4.992;2023-07-31T11:25:51;22.70;86.30
68217;DHT22;55037;52.354;4.992;2023-07-31T11:28:20;23.00;85.30
68217;DHT22;55037;52.354;4.992;2023-07-31T11:30:47;23.10;84.10
68217;DHT22;55037;52.354;4.992;2023-07-31T11:33:15;23.00;84.10
68217;DHT22;55037;52.354;4.992;2023-07-31T11:35:48;22.90;83.30
68217;DHT22;55037;52.354;4.992;2023-07-31T11:38:28;22.80;84.70
68217;DHT22;55037;52.354;4.992;2023-07-31T11:40:58;22.80;84.30
68217;DHT22;55037;52.354;4.992;2023-07-31T11:43:25;22.90;83.90
68217;DHT22;55037;52.354;4.992;2023-07-31T11:46:00;23.00;82.90
68217;DHT22;55037;52.354;4.992;2023-07-31T11:48:32;22.90;82.50
68217;DHT22;55037;52.354;4.992;2023-07-31T11:51:08;23.00;82.50
68217;DHT22;55037;52.354;4.992;2023-07-31T11:53:50;23.10;82.50
68217;DHT22;55037;52.354;4.992;2023-07-31T11:56:19;23.10;82.20
68217;DHT22;55037;52.354;4.992;2023-07-31T11:58:49;23.10;81.30
68217;DHT22;55037;52.354;4.992;2023-07-31T12:01:19;23.10;81.30
68217;DHT22;55037;52.354;4.992;2023-07-31T12:03:48;23.00;81.50
68217;DHT22;55037;52.354;4.992;2023-07-31T12:06:16;22.90;81.20
68217;DHT22;55037;52.354;4.992;2023-07-31T12:08:44;22.80;81.40
68217;DHT22;55037;52.354;4.992;2023-07-31T12:11:11;22.70;81.40
68217;DHT22;55037;52.354;4.992;2023-07-31T12:13:38;22.70;81.90
68217;DHT22;55037;52.354;4.992;2023-07-31T12:16:06;22.80;82.30
68217;DHT22;55037;52.354;4.992;2023-07-31T12:18:35;23.00;82.10
68217;DHT22;55037;52.354;4.992;2023-07-31T12:21:06;23.10;80.10
68217;DHT22;55037;52.354;4.992;2023-07-31T12:23:35;23.10;80.00
68217;DHT22;55037;52.354;4.992;2023-07-31T12:26:13;23.10;79.60
68217;DHT22;55037;52.354;4.992;2023-07-31T12:28:41;23.00;79.60
68217;DHT22;55037;52.354;4.992;2023-07-31T12:31:28;23.00;79.90
68217;DHT22;55037;52.354;4.992;2023-07-31T12:33:56;23.30;79.80
68217;DHT22;55037;52.354;4.992;2023-07-31T12:36:24;23.60;78.00
68217;DHT22;55037;52.354;4.992;2023-07-31T12:38:52;23.70;77.30
68217;DHT22;55037;52.354;4.992;2023-07-31T12:41:19;23.60;77.00
68217;DHT22;55037;52.354;4.992;2023-07-31T12:43:47;23.40;76.00
68217;DHT22;55037;52.354;4.992;2023-07-31T12:46:14;23.30;77.00
68217;DHT22;55037;52.354;4.992;2023-07-31T12:48:42;23.20;76.30
68217;DHT22;55037;52.354;4.992;2023-07-31T12:51:09;23.10;76.20
68217;DHT22;55037;52.354;4.992;2023-07-31T12:53:36;23.10;76.70
68217;DHT22;55037;52.354;4.992;2023-07-31T12:56:04;23.30;76.70
68217;DHT22;55037;52.354;4.992;2023-07-31T12:58:31;23.60;76.70
68217;DHT22;55037;52.354;4.992;2023-07-31T13:00:59;24.10;76.50
68217;DHT22;55037;52.354;4.992;2023-07-31T13:03:26;24.70;75.00
68217;DHT22;55037;52.354;4.992;2023-07-31T13:05:54;25.10;73.80
68217;DHT22;55037;52.354;4.992;2023-07-31T13:08:22;25.20;71.30
68217;DHT22;55037;52.354;4.992;2023-07-31T13:10:49;25.20;70.20
68217;DHT22;55037;52.354;4.992;2023-07-31T13:13:16;25.00;70.90
68217;DHT22;55037;52.354;4.992;2023-07-31T13:15:44;24.70;70.70
68217;DHT22;55037;52.354;4.992;2023-07-31T13:18:12;24.60;70.80
68217;DHT22;55037;52.354;4.992;2023-07-31T13:20:39;24.50;70.80
68217;DHT22;55037;52.354;4.992;2023-07-31T13:23:06;24.70;71.10
68217;DHT22;55037;52.354;4.992;2023-07-31T13:25:34;24.70;69.70
68217;DHT22;55037;52.354;4.992;2023-07-31T13:28:01;24.20;70.00
68217;DHT22;55037;52.354;4.992;2023-07-31T13:30:30;23.70;71.20
68217;DHT22;55037;52.354;4.992;2023-07-31T13:32:57;23.60;72.90
68217;DHT22;55037;52.354;4.992;2023-07-31T13:35:25;23.70;73.30
68217;DHT22;55037;52.354;4.992;2023-07-31T13:37:52;23.80;73.10
68217;DHT22;55037;52.354;4.992;2023-07-31T13:40:19;24.10;72.20
68217;DHT22;55037;52.354;4.992;2023-07-31T13:42:46;24.00;71.40
68217;DHT22;55037;52.354;4.992;2023-07-31T13:45:15;23.80;71.90
68217;DHT22;55037;52.354;4.992;2023-07-31T13:47:42;23.60;71.90
68217;DHT22;55037;52.354;4.992;2023-07-31T13:50:10;23.40;72.00
68217;DHT22;55037;52.354;4.992;2023-07-31T13:52:37;22.70;73.70
68217;DHT22;55037;52.354;4.992;2023-07-31T13:55:05;22.20;76.80
68217;DHT22;55037;52.354;4.992;2023-07-31T13:57:32;21.70;79.30
68217;DHT22;55037;52.354;4.992;2023-07-31T14:00:00;21.40;80.60
68217;DHT22;55037;52.354;4.992;2023-07-31T14:02:27;21.20;82.70
68217;DHT22;55037;52.354;4.992;2023-07-31T14:04:55;21.10;83.20
68217;DHT22;55037;52.354;4.992;2023-07-31T14:07:22;21.00;84.00
68217;DHT22;55037;52.354;4.992;2023-07-31T14:09:49;21.10;85.50
68217;DHT22;55037;52.354;4.992;2023-07-31T14:12:16;21.30;86.40
68217;DHT22;55037;52.354;4.992;2023-07-31T14:15:04;21.50;85.60
68217;DHT22;55037;52.354;4.992;2023-07-31T14:17:31;21.70;85.30
68217;DHT22;55037;52.354;4.992;2023-07-31T14:19:59;21.70;84.50
68217;DHT22;55037;52.354;4.992;2023-07-31T14:22:28;21.60;83.70
68217;DHT22;55037;52.354;4.992;2023-07-31T14:24:57;21.20;83.60
68217;DHT22;55037;52.354;4.992;2023-07-31T14:27:25;20.90;84.60
68217;DHT22;55037;52.354;4.992;2023-07-31T14:29:52;20.60;85.60
68217;DHT22;55037;52.354;4.992;2023-07-31T14:32:21;20.50;86.70
68217;DHT22;55037;52.354;4.992;2023-07-31T14:34:51;20.50;87.30
68217;DHT22;55037;52.354;4.992;2023-07-31T14:37:18;20.50;87.40
68217;DHT22;55037;52.354;4.992;2023-07-31T14:39:45;20.50;87.60
68217;DHT22;55037;52.354;4.992;2023-07-31T14:42:13;20.50;87.90
68217;DHT22;55037;52.354;4.992;2023-07-31T14:44:40;20.60;88.50
68217;DHT22;55037;52.354;4.992;2023-07-31T14:47:07;20.80;89.00
68217;DHT22;55037;52.354;4.992;2023-07-31T14:49:35;21.00;88.30
68217;DHT22;55037;52.354;4.992;2023-07-31T14:52:02;21.10;87.60
68217;DHT22;55037;52.354;4.992;2023-07-31T14:54:29;21.10;87.40
68217;DHT22;55037;52.354;4.992;2023-07-31T14:56:57;21.20;87.90
68217;DHT22;55037;52.354;4.992;2023-07-31T14:59:24;21.40;87.30
68217;DHT22;55037;52.354;4.992;2023-07-31T15:01:51;21.40;87.00
68217;DHT22;55037;52.354;4.992;2023-07-31T15:04:19;21.40;86.70
68217;DHT22;55037;52.354;4.992;2023-07-31T15:06:46;21.40;86.90
68217;DHT22;55037;52.354;4.992;2023-07-31T15:09:14;21.40;87.30
68217;DHT22;55037;52.354;4.992;2023-07-31T15:11:41;21.60;88.00
68217;DHT22;55037;52.354;4.992;2023-07-31T15:14:08;21.70;87.50
68217;DHT22;55037;52.354;4.992;2023-07-31T15:16:36;21.90;86.80
68217;DHT22;55037;52.354;4.992;2023-07-31T15:19:04;22.00;86.30
68217;DHT22;55037;52.354;4.992;2023-07-31T15:21:31;22.00;85.30
68217;DHT22;55037;52.354;4.992;2023-07-31T15:23:58;21.90;85.20
68217;DHT22;55037;52.354;4.992;2023-07-31T15:26:26;21.80;86.20
68217;DHT22;55037;52.354;4.992;2023-07-31T15:29:11;21.90;85.60
68217;DHT22;55037;52.354;4.992;2023-07-31T15:31:45;21.80;85.00
68217;DHT22;55037;52.354;4.992;2023-07-31T15:34:13;21.60;85.60
68217;DHT22;55037;52.354;4.992;2023-07-31T15:36:41;21.50;86.10
68217;DHT22;55037;52.354;4.992;2023-07-31T15:39:11;21.50;86.40
68217;DHT22;55037;52.354;4.992;2023-07-31T15:41:39;21.60;87.00
68217;DHT22;55037;52.354;4.992;2023-07-31T15:44:07;21.60;86.90
68217;DHT22;55037;52.354;4.992;2023-07-31T15:46:34;21.70;86.80
68217;DHT22;55037;52.354;4.992;2023-07-31T15:49:02;21.70;87.00
68217;DHT22;55037;52.354;4.992;2023-07-31T15:51:30;21.80;86.40